Austinville, Virginia
Current Conditions -  °F | °C
As of 8:15 PM on Wednesday 22 Oct 2014 (Local Time) from KHLX Reporting Station
Overcast Overcast  
Wind Chill: 36°   Ceiling: 2400
Heat Index: 45°   Visibility: 10mi
Dew Point: 38°   Wind: 21mph
Humidity: 77%   Direction: 330°NNW
Pressure: 30.1"   Gusts: 28mph
Location:  36.85°N, 80.91°W
Report Text: KHLX 230015Z AUTO 33018G24KT 10SM OVC024 07/03 A3010 RMK AO2 T00700033
Loading
Personal Weather Stations






























Interactive Weather Map
Tropical Storm Tracking
New forecast layout! Learn more

10-Day Weather Forecast

Advertisements
Track Severe Weather on mobile